<?xml version="1.0" encoding="UTF-8" standalone="no" ?>
<gpx xmlns="http://www.topografix.com/GPX/1/1" xmlns:xsi="http://www.w3.org/2001/XMLSchema-instance" xsi:schemaLocation="http://www.topografix.com/GPX/1/1 http://www.topografix.com/GPX/1/1/gpx.xsd" version="1.1" creator="VisuGPX - https://www.visugpx.com">
  <metadata>
    <name>sainte baume</name>
    <desc><![CDATA[sainte baume]]></desc>
  </metadata>
  <trk>
    <name><![CDATA[26/08/2010 18:08]]></name>
    <trkseg>
      <trkpt lat="43.98255" lon="4.70144">
        <ele>127</ele>
        <time>2010-08-26T18:11:22.120Z</time>
      </trkpt>
      <trkpt lat="43.98261" lon="4.7014">
        <ele>132.5</ele>
        <time>2010-08-26T18:11:34.110Z</time>
      </trkpt>
      <trkpt lat="43.98256" lon="4.70136">
        <ele>126.5</ele>
        <time>2010-08-26T18:12:49.050Z</time>
      </trkpt>
      <trkpt lat="43.9828" lon="4.70145">
        <ele>127</ele>
        <time>2010-08-26T18:13:01.040Z</time>
      </trkpt>
      <trkpt lat="43.98388" lon="4.70493">
        <ele>124.5</ele>
        <time>2010-08-26T18:13:40.020Z</time>
      </trkpt>
      <trkpt lat="43.98417" lon="4.70573">
        <ele>126.5</ele>
        <time>2010-08-26T18:13:49.530Z</time>
      </trkpt>
      <trkpt lat="43.98577" lon="4.70899">
        <ele>125</ele>
        <time>2010-08-26T18:14:20.020Z</time>
      </trkpt>
      <trkpt lat="43.98621" lon="4.7095">
        <ele>123</ele>
        <time>2010-08-26T18:14:26.010Z</time>
      </trkpt>
      <trkpt lat="43.98723" lon="4.71005">
        <ele>122</ele>
        <time>2010-08-26T18:14:37.010Z</time>
      </trkpt>
      <trkpt lat="43.98754" lon="4.71035">
        <ele>122</ele>
        <time>2010-08-26T18:14:41Z</time>
      </trkpt>
      <trkpt lat="43.98799" lon="4.71099">
        <ele>122.5</ele>
        <time>2010-08-26T18:14:48Z</time>
      </trkpt>
      <trkpt lat="43.98829" lon="4.7113">
        <ele>124</ele>
        <time>2010-08-26T18:15:00.910Z</time>
      </trkpt>
      <trkpt lat="43.98844" lon="4.71115">
        <ele>126.5</ele>
        <time>2010-08-26T18:15:09.910Z</time>
      </trkpt>
      <trkpt lat="43.9885" lon="4.71091">
        <ele>128.5</ele>
        <time>2010-08-26T18:15:16.900Z</time>
      </trkpt>
      <trkpt lat="43.98829" lon="4.70998">
        <ele>132.5</ele>
        <time>2010-08-26T18:15:44.890Z</time>
      </trkpt>
      <trkpt lat="43.9883" lon="4.70975">
        <ele>133</ele>
        <time>2010-08-26T18:15:51.870Z</time>
      </trkpt>
      <trkpt lat="43.98808" lon="4.70931">
        <ele>136</ele>
        <time>2010-08-26T18:16:09.860Z</time>
      </trkpt>
      <trkpt lat="43.98809" lon="4.70912">
        <ele>138.5</ele>
        <time>2010-08-26T18:16:18.860Z</time>
      </trkpt>
      <trkpt lat="43.98843" lon="4.70897">
        <ele>144.5</ele>
        <time>2010-08-26T18:16:40.840Z</time>
      </trkpt>
      <trkpt lat="43.98883" lon="4.7084">
        <ele>146.5</ele>
        <time>2010-08-26T18:17:09.820Z</time>
      </trkpt>
      <trkpt lat="43.98914" lon="4.70811">
        <ele>152</ele>
        <time>2010-08-26T18:17:35.800Z</time>
      </trkpt>
      <trkpt lat="43.98978" lon="4.70819">
        <ele>165</ele>
        <time>2010-08-26T18:18:34.760Z</time>
      </trkpt>
      <trkpt lat="43.99007" lon="4.7083">
        <ele>161.5</ele>
        <time>2010-08-26T18:18:44.750Z</time>
      </trkpt>
      <trkpt lat="43.99023" lon="4.7085">
        <ele>160</ele>
        <time>2010-08-26T18:18:50.740Z</time>
      </trkpt>
      <trkpt lat="43.99056" lon="4.70873">
        <ele>157.5</ele>
        <time>2010-08-26T18:19:03.740Z</time>
      </trkpt>
      <trkpt lat="43.9909" lon="4.70935">
        <ele>154</ele>
        <time>2010-08-26T18:19:18.720Z</time>
      </trkpt>
      <trkpt lat="43.99127" lon="4.70941">
        <ele>152</ele>
        <time>2010-08-26T18:19:29.710Z</time>
      </trkpt>
      <trkpt lat="43.9917" lon="4.70934">
        <ele>149.5</ele>
        <time>2010-08-26T18:19:47.700Z</time>
      </trkpt>
      <trkpt lat="43.99222" lon="4.70975">
        <ele>146.5</ele>
        <time>2010-08-26T18:20:06.690Z</time>
      </trkpt>
      <trkpt lat="43.99244" lon="4.71024">
        <ele>144.5</ele>
        <time>2010-08-26T18:20:20.950Z</time>
      </trkpt>
      <trkpt lat="43.99245" lon="4.71037">
        <ele>144</ele>
        <time>2010-08-26T18:20:24.950Z</time>
      </trkpt>
      <trkpt lat="43.99276" lon="4.71048">
        <ele>142.5</ele>
        <time>2010-08-26T18:20:35.690Z</time>
      </trkpt>
      <trkpt lat="43.99301" lon="4.71069">
        <ele>141</ele>
        <time>2010-08-26T18:20:43.690Z</time>
      </trkpt>
      <trkpt lat="43.99315" lon="4.71073">
        <ele>140.5</ele>
        <time>2010-08-26T18:20:46.690Z</time>
      </trkpt>
      <trkpt lat="43.99327" lon="4.71066">
        <ele>140.5</ele>
        <time>2010-08-26T18:20:49.690Z</time>
      </trkpt>
      <trkpt lat="43.99341" lon="4.71041">
        <ele>139.5</ele>
        <time>2010-08-26T18:20:54.680Z</time>
      </trkpt>
      <trkpt lat="43.9935" lon="4.70967">
        <ele>142</ele>
        <time>2010-08-26T18:21:08.670Z</time>
      </trkpt>
      <trkpt lat="43.99363" lon="4.70922">
        <ele>143</ele>
        <time>2010-08-26T18:21:17.660Z</time>
      </trkpt>
      <trkpt lat="43.99391" lon="4.70868">
        <ele>144</ele>
        <time>2010-08-26T18:21:30.660Z</time>
      </trkpt>
      <trkpt lat="43.99442" lon="4.70831">
        <ele>146.5</ele>
        <time>2010-08-26T18:21:45.640Z</time>
      </trkpt>
      <trkpt lat="43.99452" lon="4.70818">
        <ele>147.5</ele>
        <time>2010-08-26T18:21:49.640Z</time>
      </trkpt>
      <trkpt lat="43.99483" lon="4.70719">
        <ele>152.5</ele>
        <time>2010-08-26T18:22:14.620Z</time>
      </trkpt>
      <trkpt lat="43.99484" lon="4.70702">
        <ele>154</ele>
        <time>2010-08-26T18:22:18.620Z</time>
      </trkpt>
      <trkpt lat="43.99477" lon="4.70688">
        <ele>154.5</ele>
        <time>2010-08-26T18:22:22.620Z</time>
      </trkpt>
      <trkpt lat="43.99426" lon="4.70659">
        <ele>156</ele>
        <time>2010-08-26T18:22:52.600Z</time>
      </trkpt>
      <trkpt lat="43.99469" lon="4.70679">
        <ele>154.5</ele>
        <time>2010-08-26T18:23:11.590Z</time>
      </trkpt>
      <trkpt lat="43.99469" lon="4.70604">
        <ele>160</ele>
        <time>2010-08-26T18:23:39.570Z</time>
      </trkpt>
      <trkpt lat="43.99478" lon="4.70559">
        <ele>163</ele>
        <time>2010-08-26T18:23:54.560Z</time>
      </trkpt>
      <trkpt lat="43.99505" lon="4.70538">
        <ele>169</ele>
        <time>2010-08-26T18:24:09.550Z</time>
      </trkpt>
      <trkpt lat="43.99544" lon="4.7047">
        <ele>172.5</ele>
        <time>2010-08-26T18:24:34.530Z</time>
      </trkpt>
      <trkpt lat="43.99647" lon="4.70404">
        <ele>186.5</ele>
        <time>2010-08-26T18:25:01.550Z</time>
      </trkpt>
      <trkpt lat="43.9966" lon="4.70405">
        <ele>186.5</ele>
        <time>2010-08-26T18:25:06.780Z</time>
      </trkpt>
      <trkpt lat="43.99721" lon="4.70363">
        <ele>177.5</ele>
        <time>2010-08-26T18:25:40.760Z</time>
      </trkpt>
      <trkpt lat="43.9971" lon="4.70363">
        <ele>176.5</ele>
        <time>2010-08-26T18:25:48.810Z</time>
      </trkpt>
      <trkpt lat="43.99698" lon="4.70339">
        <ele>174.5</ele>
        <time>2010-08-26T18:25:59.920Z</time>
      </trkpt>
      <trkpt lat="43.997" lon="4.70331">
        <ele>174</ele>
        <time>2010-08-26T18:26:02.920Z</time>
      </trkpt>
      <trkpt lat="43.99695" lon="4.70324">
        <ele>173</ele>
        <time>2010-08-26T18:26:06.910Z</time>
      </trkpt>
      <trkpt lat="43.99672" lon="4.70331">
        <ele>170.5</ele>
        <time>2010-08-26T18:26:17.910Z</time>
      </trkpt>
      <trkpt lat="43.99666" lon="4.70305">
        <ele>171</ele>
        <time>2010-08-26T18:26:26.910Z</time>
      </trkpt>
      <trkpt lat="43.99667" lon="4.70274">
        <ele>171.5</ele>
        <time>2010-08-26T18:26:35.900Z</time>
      </trkpt>
      <trkpt lat="43.99661" lon="4.70264">
        <ele>171.5</ele>
        <time>2010-08-26T18:26:40.900Z</time>
      </trkpt>
      <trkpt lat="43.99658" lon="4.7024">
        <ele>171.5</ele>
        <time>2010-08-26T18:26:49.900Z</time>
      </trkpt>
      <trkpt lat="43.99664" lon="4.7023">
        <ele>172.5</ele>
        <time>2010-08-26T18:26:53.890Z</time>
      </trkpt>
      <trkpt lat="43.99662" lon="4.70215">
        <ele>172.5</ele>
        <time>2010-08-26T18:26:58.890Z</time>
      </trkpt>
      <trkpt lat="43.99671" lon="4.70191">
        <ele>172.5</ele>
        <time>2010-08-26T18:27:05.880Z</time>
      </trkpt>
      <trkpt lat="43.99672" lon="4.70169">
        <ele>173</ele>
        <time>2010-08-26T18:27:14.880Z</time>
      </trkpt>
      <trkpt lat="43.99656" lon="4.70143">
        <ele>172.5</ele>
        <time>2010-08-26T18:27:21.880Z</time>
      </trkpt>
      <trkpt lat="43.99636" lon="4.70128">
        <ele>171.5</ele>
        <time>2010-08-26T18:27:27.870Z</time>
      </trkpt>
      <trkpt lat="43.9958" lon="4.7">
        <ele>169</ele>
        <time>2010-08-26T18:27:55.150Z</time>
      </trkpt>
      <trkpt lat="43.99573" lon="4.69964">
        <ele>169</ele>
        <time>2010-08-26T18:28:02.120Z</time>
      </trkpt>
      <trkpt lat="43.99528" lon="4.69912">
        <ele>171</ele>
        <time>2010-08-26T18:30:25.030Z</time>
      </trkpt>
      <trkpt lat="43.99451" lon="4.69882">
        <ele>171.5</ele>
        <time>2010-08-26T18:31:20.990Z</time>
      </trkpt>
      <trkpt lat="43.99372" lon="4.69811">
        <ele>165.5</ele>
        <time>2010-08-26T18:31:38.980Z</time>
      </trkpt>
      <trkpt lat="43.99292" lon="4.69716">
        <ele>164</ele>
        <time>2010-08-26T18:31:58.970Z</time>
      </trkpt>
      <trkpt lat="43.99247" lon="4.69705">
        <ele>165</ele>
        <time>2010-08-26T18:32:06.950Z</time>
      </trkpt>
      <trkpt lat="43.99203" lon="4.69669">
        <ele>166</ele>
        <time>2010-08-26T18:32:15.950Z</time>
      </trkpt>
      <trkpt lat="43.99177" lon="4.6966">
        <ele>166.5</ele>
        <time>2010-08-26T18:32:20.940Z</time>
      </trkpt>
      <trkpt lat="43.99145" lon="4.69635">
        <ele>166</ele>
        <time>2010-08-26T18:32:27.940Z</time>
      </trkpt>
      <trkpt lat="43.99117" lon="4.69631">
        <ele>166.5</ele>
        <time>2010-08-26T18:32:33.940Z</time>
      </trkpt>
      <trkpt lat="43.99089" lon="4.69561">
        <ele>166.5</ele>
        <time>2010-08-26T18:32:45.930Z</time>
      </trkpt>
      <trkpt lat="43.99083" lon="4.69488">
        <ele>168</ele>
        <time>2010-08-26T18:32:56.920Z</time>
      </trkpt>
      <trkpt lat="43.991" lon="4.69375">
        <ele>171</ele>
        <time>2010-08-26T18:33:18.910Z</time>
      </trkpt>
      <trkpt lat="43.99083" lon="4.69353">
        <ele>171.5</ele>
        <time>2010-08-26T18:33:24.900Z</time>
      </trkpt>
      <trkpt lat="43.99068" lon="4.69315">
        <ele>172.5</ele>
        <time>2010-08-26T18:33:32.900Z</time>
      </trkpt>
      <trkpt lat="43.99041" lon="4.69276">
        <ele>173</ele>
        <time>2010-08-26T18:33:42.890Z</time>
      </trkpt>
      <trkpt lat="43.99012" lon="4.6926">
        <ele>173.5</ele>
        <time>2010-08-26T18:33:49.880Z</time>
      </trkpt>
      <trkpt lat="43.98995" lon="4.69231">
        <ele>173.5</ele>
        <time>2010-08-26T18:33:55.880Z</time>
      </trkpt>
      <trkpt lat="43.9899" lon="4.69194">
        <ele>174.5</ele>
        <time>2010-08-26T18:34:02.880Z</time>
      </trkpt>
      <trkpt lat="43.98957" lon="4.69164">
        <ele>173</ele>
        <time>2010-08-26T18:34:11.870Z</time>
      </trkpt>
      <trkpt lat="43.98941" lon="4.69158">
        <ele>173</ele>
        <time>2010-08-26T18:34:15.870Z</time>
      </trkpt>
      <trkpt lat="43.98969" lon="4.69065">
        <ele>175</ele>
        <time>2010-08-26T18:34:34.850Z</time>
      </trkpt>
      <trkpt lat="43.98991" lon="4.6895">
        <ele>180</ele>
        <time>2010-08-26T18:34:59.840Z</time>
      </trkpt>
      <trkpt lat="43.98987" lon="4.68862">
        <ele>180.5</ele>
        <time>2010-08-26T18:35:17.830Z</time>
      </trkpt>
      <trkpt lat="43.98966" lon="4.68811">
        <ele>181</ele>
        <time>2010-08-26T18:35:28.820Z</time>
      </trkpt>
      <trkpt lat="43.98963" lon="4.6879">
        <ele>182</ele>
        <time>2010-08-26T18:35:32.820Z</time>
      </trkpt>
      <trkpt lat="43.98972" lon="4.6873">
        <ele>183.5</ele>
        <time>2010-08-26T18:35:44.810Z</time>
      </trkpt>
      <trkpt lat="43.98993" lon="4.68652">
        <ele>185.5</ele>
        <time>2010-08-26T18:36:00.800Z</time>
      </trkpt>
      <trkpt lat="43.98981" lon="4.68589">
        <ele>184.5</ele>
        <time>2010-08-26T18:36:11.790Z</time>
      </trkpt>
      <trkpt lat="43.98988" lon="4.68558">
        <ele>185.5</ele>
        <time>2010-08-26T18:36:17.790Z</time>
      </trkpt>
      <trkpt lat="43.98998" lon="4.68542">
        <ele>186.5</ele>
        <time>2010-08-26T18:36:22.790Z</time>
      </trkpt>
      <trkpt lat="43.98999" lon="4.68524">
        <ele>187.5</ele>
        <time>2010-08-26T18:36:27.780Z</time>
      </trkpt>
      <trkpt lat="43.98837" lon="4.6829">
        <ele>187.5</ele>
        <time>2010-08-26T18:37:24.760Z</time>
      </trkpt>
      <trkpt lat="43.98718" lon="4.68082">
        <ele>187</ele>
        <time>2010-08-26T18:38:04.730Z</time>
      </trkpt>
      <trkpt lat="43.98695" lon="4.6801">
        <ele>190</ele>
        <time>2010-08-26T18:38:54.710Z</time>
      </trkpt>
      <trkpt lat="43.98713" lon="4.68074">
        <ele>189.5</ele>
        <time>2010-08-26T18:39:08.690Z</time>
      </trkpt>
      <trkpt lat="43.98835" lon="4.6829">
        <ele>190</ele>
        <time>2010-08-26T18:39:39.670Z</time>
      </trkpt>
      <trkpt lat="43.99002" lon="4.68523">
        <ele>188.5</ele>
        <time>2010-08-26T18:40:15.380Z</time>
      </trkpt>
      <trkpt lat="43.99043" lon="4.68562">
        <ele>190.5</ele>
        <time>2010-08-26T18:40:25.380Z</time>
      </trkpt>
      <trkpt lat="43.99066" lon="4.68598">
        <ele>190</ele>
        <time>2010-08-26T18:40:32.370Z</time>
      </trkpt>
      <trkpt lat="43.99091" lon="4.68653">
        <ele>192</ele>
        <time>2010-08-26T18:40:42.600Z</time>
      </trkpt>
      <trkpt lat="43.99173" lon="4.68762">
        <ele>189</ele>
        <time>2010-08-26T18:41:04.320Z</time>
      </trkpt>
      <trkpt lat="43.99201" lon="4.68787">
        <ele>188.5</ele>
        <time>2010-08-26T18:41:10.320Z</time>
      </trkpt>
      <trkpt lat="43.9922" lon="4.68826">
        <ele>187</ele>
        <time>2010-08-26T18:41:16.310Z</time>
      </trkpt>
      <trkpt lat="43.99329" lon="4.68978">
        <ele>189.5</ele>
        <time>2010-08-26T18:41:47.840Z</time>
      </trkpt>
      <trkpt lat="43.99357" lon="4.69001">
        <ele>188.5</ele>
        <time>2010-08-26T18:41:53.830Z</time>
      </trkpt>
      <trkpt lat="43.9943" lon="4.69096">
        <ele>188</ele>
        <time>2010-08-26T18:42:12.660Z</time>
      </trkpt>
      <trkpt lat="43.99471" lon="4.69165">
        <ele>187</ele>
        <time>2010-08-26T18:42:22.660Z</time>
      </trkpt>
      <trkpt lat="43.99504" lon="4.69195">
        <ele>189.5</ele>
        <time>2010-08-26T18:42:30.790Z</time>
      </trkpt>
      <trkpt lat="43.99552" lon="4.69264">
        <ele>192.5</ele>
        <time>2010-08-26T18:42:48.250Z</time>
      </trkpt>
      <trkpt lat="43.99576" lon="4.69325">
        <ele>192.5</ele>
        <time>2010-08-26T18:42:59.240Z</time>
      </trkpt>
      <trkpt lat="43.99595" lon="4.69358">
        <ele>190.5</ele>
        <time>2010-08-26T18:43:04.240Z</time>
      </trkpt>
      <trkpt lat="43.99742" lon="4.69533">
        <ele>181</ele>
        <time>2010-08-26T18:43:35.400Z</time>
      </trkpt>
      <trkpt lat="43.99761" lon="4.69505">
        <ele>181.5</ele>
        <time>2010-08-26T18:43:44.410Z</time>
      </trkpt>
      <trkpt lat="43.99784" lon="4.69488">
        <ele>181.5</ele>
        <time>2010-08-26T18:44:53.790Z</time>
      </trkpt>
      <trkpt lat="43.99789" lon="4.6951">
        <ele>185</ele>
        <time>2010-08-26T18:45:09.780Z</time>
      </trkpt>
      <trkpt lat="43.99809" lon="4.69537">
        <ele>187.5</ele>
        <time>2010-08-26T18:45:19.770Z</time>
      </trkpt>
      <trkpt lat="43.99928" lon="4.69752">
        <ele>183.5</ele>
        <time>2010-08-26T18:46:00.260Z</time>
      </trkpt>
      <trkpt lat="43.99953" lon="4.69775">
        <ele>185</ele>
        <time>2010-08-26T18:46:08.250Z</time>
      </trkpt>
      <trkpt lat="44.00179" lon="4.6977">
        <ele>230.5</ele>
        <time>2010-08-26T18:47:09.200Z</time>
      </trkpt>
      <trkpt lat="44.00202" lon="4.6978">
        <ele>231</ele>
        <time>2010-08-26T18:47:15.200Z</time>
      </trkpt>
      <trkpt lat="44.00381" lon="4.69918">
        <ele>218.5</ele>
        <time>2010-08-26T18:47:52.170Z</time>
      </trkpt>
      <trkpt lat="44.00383" lon="4.69967">
        <ele>214.5</ele>
        <time>2010-08-26T18:48:02.170Z</time>
      </trkpt>
      <trkpt lat="44.004" lon="4.70026">
        <ele>212</ele>
        <time>2010-08-26T18:48:12.160Z</time>
      </trkpt>
      <trkpt lat="44.00398" lon="4.70049">
        <ele>210.5</ele>
        <time>2010-08-26T18:48:17.160Z</time>
      </trkpt>
      <trkpt lat="44.0037" lon="4.70114">
        <ele>204.5</ele>
        <time>2010-08-26T18:48:31.150Z</time>
      </trkpt>
      <trkpt lat="44.00374" lon="4.70118">
        <ele>202.5</ele>
        <time>2010-08-26T18:49:17.310Z</time>
      </trkpt>
      <trkpt lat="44.00405" lon="4.70102">
        <ele>206.5</ele>
        <time>2010-08-26T18:49:32.220Z</time>
      </trkpt>
      <trkpt lat="44.00423" lon="4.70106">
        <ele>208.5</ele>
        <time>2010-08-26T18:49:40.780Z</time>
      </trkpt>
      <trkpt lat="44.00437" lon="4.70097">
        <ele>209</ele>
        <time>2010-08-26T18:49:53.760Z</time>
      </trkpt>
      <trkpt lat="44.00436" lon="4.70085">
        <ele>211.5</ele>
        <time>2010-08-26T18:50:04.770Z</time>
      </trkpt>
      <trkpt lat="44.0042" lon="4.70085">
        <ele>206</ele>
        <time>2010-08-26T18:50:48.780Z</time>
      </trkpt>
      <trkpt lat="44.0041" lon="4.70108">
        <ele>202.5</ele>
        <time>2010-08-26T18:50:53.790Z</time>
      </trkpt>
      <trkpt lat="44.00342" lon="4.70144">
        <ele>194.5</ele>
        <time>2010-08-26T18:51:04.770Z</time>
      </trkpt>
      <trkpt lat="44.00339" lon="4.70154">
        <ele>193.5</ele>
        <time>2010-08-26T18:51:06.770Z</time>
      </trkpt>
      <trkpt lat="44.00347" lon="4.70162">
        <ele>192.5</ele>
        <time>2010-08-26T18:51:08.770Z</time>
      </trkpt>
      <trkpt lat="44.00418" lon="4.70181">
        <ele>182</ele>
        <time>2010-08-26T18:51:17.760Z</time>
      </trkpt>
      <trkpt lat="44.00444" lon="4.70177">
        <ele>178.5</ele>
        <time>2010-08-26T18:51:21.170Z</time>
      </trkpt>
      <trkpt lat="44.0055" lon="4.7009">
        <ele>175</ele>
        <time>2010-08-26T18:51:42.150Z</time>
      </trkpt>
      <trkpt lat="44.00605" lon="4.70035">
        <ele>171.5</ele>
        <time>2010-08-26T18:51:56.150Z</time>
      </trkpt>
      <trkpt lat="44.00636" lon="4.70018">
        <ele>168</ele>
        <time>2010-08-26T18:52:02.140Z</time>
      </trkpt>
      <trkpt lat="44.00663" lon="4.70019">
        <ele>167</ele>
        <time>2010-08-26T18:52:07.140Z</time>
      </trkpt>
      <trkpt lat="44.0073" lon="4.69975">
        <ele>160</ele>
        <time>2010-08-26T18:52:17.130Z</time>
      </trkpt>
      <trkpt lat="44.00746" lon="4.69939">
        <ele>159</ele>
        <time>2010-08-26T18:52:21.130Z</time>
      </trkpt>
      <trkpt lat="44.00801" lon="4.69908">
        <ele>159.5</ele>
        <time>2010-08-26T18:52:28.120Z</time>
      </trkpt>
      <trkpt lat="44.00893" lon="4.699">
        <ele>160</ele>
        <time>2010-08-26T18:52:41.120Z</time>
      </trkpt>
      <trkpt lat="44.00921" lon="4.69919">
        <ele>159.5</ele>
        <time>2010-08-26T18:52:49.120Z</time>
      </trkpt>
      <trkpt lat="44.01009" lon="4.69944">
        <ele>161.5</ele>
        <time>2010-08-26T18:53:06.110Z</time>
      </trkpt>
      <trkpt lat="44.01045" lon="4.69989">
        <ele>161</ele>
        <time>2010-08-26T18:53:18.100Z</time>
      </trkpt>
      <trkpt lat="44.01074" lon="4.69999">
        <ele>160.5</ele>
        <time>2010-08-26T18:53:28.100Z</time>
      </trkpt>
      <trkpt lat="44.01083" lon="4.70014">
        <ele>160</ele>
        <time>2010-08-26T18:53:33.100Z</time>
      </trkpt>
      <trkpt lat="44.01105" lon="4.70009">
        <ele>158.5</ele>
        <time>2010-08-26T18:53:42.100Z</time>
      </trkpt>
      <trkpt lat="44.01113" lon="4.7">
        <ele>158</ele>
        <time>2010-08-26T18:53:47.080Z</time>
      </trkpt>
      <trkpt lat="44.01126" lon="4.69999">
        <ele>160</ele>
        <time>2010-08-26T18:53:52.080Z</time>
      </trkpt>
      <trkpt lat="44.01153" lon="4.69968">
        <ele>159.5</ele>
        <time>2010-08-26T18:54:03.080Z</time>
      </trkpt>
      <trkpt lat="44.01184" lon="4.69969">
        <ele>166</ele>
        <time>2010-08-26T18:54:43.060Z</time>
      </trkpt>
      <trkpt lat="44.01193" lon="4.69954">
        <ele>165</ele>
        <time>2010-08-26T18:54:48.060Z</time>
      </trkpt>
      <trkpt lat="44.01222" lon="4.6987">
        <ele>160</ele>
        <time>2010-08-26T18:55:00.040Z</time>
      </trkpt>
      <trkpt lat="44.01235" lon="4.69803">
        <ele>158</ele>
        <time>2010-08-26T18:55:08.040Z</time>
      </trkpt>
      <trkpt lat="44.01221" lon="4.69658">
        <ele>158.5</ele>
        <time>2010-08-26T18:55:25.020Z</time>
      </trkpt>
      <trkpt lat="44.01229" lon="4.69651">
        <ele>158</ele>
        <time>2010-08-26T18:55:27.020Z</time>
      </trkpt>
      <trkpt lat="44.01243" lon="4.69652">
        <ele>165</ele>
        <time>2010-08-26T18:55:34.020Z</time>
      </trkpt>
      <trkpt lat="44.01223" lon="4.69652">
        <ele>174.5</ele>
        <time>2010-08-26T18:55:47.010Z</time>
      </trkpt>
      <trkpt lat="44.01225" lon="4.69657">
        <ele>176</ele>
        <time>2010-08-26T18:55:50.010Z</time>
      </trkpt>
      <trkpt lat="44.01509" lon="4.69673">
        <ele>176.5</ele>
        <time>2010-08-26T18:56:35.970Z</time>
      </trkpt>
      <trkpt lat="44.01543" lon="4.69668">
        <ele>176.5</ele>
        <time>2010-08-26T18:56:43.970Z</time>
      </trkpt>
      <trkpt lat="44.01794" lon="4.6959">
        <ele>178.5</ele>
        <time>2010-08-26T18:58:09.910Z</time>
      </trkpt>
      <trkpt lat="44.01831" lon="4.69595">
        <ele>179.5</ele>
        <time>2010-08-26T18:58:15.900Z</time>
      </trkpt>
      <trkpt lat="44.02061" lon="4.69688">
        <ele>185.5</ele>
        <time>2010-08-26T18:58:50.880Z</time>
      </trkpt>
      <trkpt lat="44.02088" lon="4.69708">
        <ele>186</ele>
        <time>2010-08-26T18:58:55.880Z</time>
      </trkpt>
      <trkpt lat="44.02116" lon="4.69743">
        <ele>185.5</ele>
        <time>2010-08-26T18:59:01.880Z</time>
      </trkpt>
      <trkpt lat="44.02135" lon="4.69756">
        <ele>185</ele>
        <time>2010-08-26T18:59:04.870Z</time>
      </trkpt>
      <trkpt lat="44.02296" lon="4.69808">
        <ele>182</ele>
        <time>2010-08-26T18:59:25.860Z</time>
      </trkpt>
      <trkpt lat="44.02338" lon="4.69807">
        <ele>182.5</ele>
        <time>2010-08-26T18:59:30.860Z</time>
      </trkpt>
      <trkpt lat="44.02436" lon="4.6978">
        <ele>181.5</ele>
        <time>2010-08-26T18:59:44.850Z</time>
      </trkpt>
      <trkpt lat="44.02443" lon="4.69753">
        <ele>183</ele>
        <time>2010-08-26T18:59:52.850Z</time>
      </trkpt>
      <trkpt lat="44.02534" lon="4.69718">
        <ele>189.5</ele>
        <time>2010-08-26T19:00:16.830Z</time>
      </trkpt>
      <trkpt lat="44.02646" lon="4.69594">
        <ele>196</ele>
        <time>2010-08-26T19:00:55.810Z</time>
      </trkpt>
      <trkpt lat="44.02653" lon="4.69571">
        <ele>196.5</ele>
        <time>2010-08-26T19:01:01.810Z</time>
      </trkpt>
      <trkpt lat="44.02641" lon="4.69533">
        <ele>198.5</ele>
        <time>2010-08-26T19:01:12.810Z</time>
      </trkpt>
      <trkpt lat="44.02628" lon="4.69517">
        <ele>200</ele>
        <time>2010-08-26T19:01:19.800Z</time>
      </trkpt>
      <trkpt lat="44.02572" lon="4.69505">
        <ele>203</ele>
        <time>2010-08-26T19:01:39.780Z</time>
      </trkpt>
      <trkpt lat="44.02528" lon="4.69503">
        <ele>205.5</ele>
        <time>2010-08-26T19:01:55.770Z</time>
      </trkpt>
      <trkpt lat="44.02476" lon="4.69484">
        <ele>210</ele>
        <time>2010-08-26T19:02:14.760Z</time>
      </trkpt>
      <trkpt lat="44.02446" lon="4.6948">
        <ele>212.5</ele>
        <time>2010-08-26T19:02:27.760Z</time>
      </trkpt>
      <trkpt lat="44.0242" lon="4.69467">
        <ele>216</ele>
        <time>2010-08-26T19:02:38.740Z</time>
      </trkpt>
      <trkpt lat="44.02392" lon="4.69437">
        <ele>218.5</ele>
        <time>2010-08-26T19:02:52.740Z</time>
      </trkpt>
      <trkpt lat="44.02298" lon="4.6939">
        <ele>225.5</ele>
        <time>2010-08-26T19:03:32.710Z</time>
      </trkpt>
      <trkpt lat="44.02258" lon="4.69361">
        <ele>229.5</ele>
        <time>2010-08-26T19:03:50.700Z</time>
      </trkpt>
      <trkpt lat="44.02241" lon="4.6932">
        <ele>231.5</ele>
        <time>2010-08-26T19:04:04.690Z</time>
      </trkpt>
      <trkpt lat="44.02229" lon="4.69224">
        <ele>236</ele>
        <time>2010-08-26T19:04:34.680Z</time>
      </trkpt>
      <trkpt lat="44.02236" lon="4.6916">
        <ele>238</ele>
        <time>2010-08-26T19:04:52.670Z</time>
      </trkpt>
      <trkpt lat="44.02226" lon="4.69113">
        <ele>239</ele>
        <time>2010-08-26T19:05:05.660Z</time>
      </trkpt>
      <trkpt lat="44.02189" lon="4.69079">
        <ele>239.5</ele>
        <time>2010-08-26T19:05:23.650Z</time>
      </trkpt>
      <trkpt lat="44.02174" lon="4.69041">
        <ele>242</ele>
        <time>2010-08-26T19:05:36.640Z</time>
      </trkpt>
      <trkpt lat="44.02141" lon="4.69006">
        <ele>243</ele>
        <time>2010-08-26T19:05:53.630Z</time>
      </trkpt>
      <trkpt lat="44.02091" lon="4.69002">
        <ele>244</ele>
        <time>2010-08-26T19:06:15.610Z</time>
      </trkpt>
      <trkpt lat="44.02053" lon="4.68969">
        <ele>246.5</ele>
        <time>2010-08-26T19:06:34.570Z</time>
      </trkpt>
      <trkpt lat="44.02045" lon="4.68952">
        <ele>247.5</ele>
        <time>2010-08-26T19:06:41.560Z</time>
      </trkpt>
      <trkpt lat="44.02046" lon="4.68909">
        <ele>251</ele>
        <time>2010-08-26T19:06:57.550Z</time>
      </trkpt>
      <trkpt lat="44.02035" lon="4.68895">
        <ele>252</ele>
        <time>2010-08-26T19:07:05.550Z</time>
      </trkpt>
      <trkpt lat="44.02019" lon="4.68895">
        <ele>251.5</ele>
        <time>2010-08-26T19:07:13.540Z</time>
      </trkpt>
      <trkpt lat="44.01989" lon="4.68869">
        <ele>255</ele>
        <time>2010-08-26T19:07:32.530Z</time>
      </trkpt>
      <trkpt lat="44.01965" lon="4.68869">
        <ele>255</ele>
        <time>2010-08-26T19:07:44.530Z</time>
      </trkpt>
      <trkpt lat="44.01919" lon="4.68927">
        <ele>267</ele>
        <time>2010-08-26T19:08:13.500Z</time>
      </trkpt>
      <trkpt lat="44.01905" lon="4.68936">
        <ele>268.5</ele>
        <time>2010-08-26T19:09:46.800Z</time>
      </trkpt>
      <trkpt lat="44.01904" lon="4.68889">
        <ele>268.5</ele>
        <time>2010-08-26T19:10:05.790Z</time>
      </trkpt>
      <trkpt lat="44.0191" lon="4.68875">
        <ele>268.5</ele>
        <time>2010-08-26T19:10:10.780Z</time>
      </trkpt>
      <trkpt lat="44.01949" lon="4.68852">
        <ele>268</ele>
        <time>2010-08-26T19:10:23.770Z</time>
      </trkpt>
      <trkpt lat="44.01961" lon="4.68833">
        <ele>268</ele>
        <time>2010-08-26T19:10:28.770Z</time>
      </trkpt>
      <trkpt lat="44.01971" lon="4.68798">
        <ele>268</ele>
        <time>2010-08-26T19:10:35.770Z</time>
      </trkpt>
      <trkpt lat="44.01971" lon="4.68741">
        <ele>267.5</ele>
        <time>2010-08-26T19:10:45.760Z</time>
      </trkpt>
      <trkpt lat="44.01979" lon="4.68699">
        <ele>267.5</ele>
        <time>2010-08-26T19:10:52.760Z</time>
      </trkpt>
      <trkpt lat="44.01969" lon="4.6865">
        <ele>267.5</ele>
        <time>2010-08-26T19:11:00.750Z</time>
      </trkpt>
      <trkpt lat="44.01971" lon="4.6861">
        <ele>267.5</ele>
        <time>2010-08-26T19:11:06.750Z</time>
      </trkpt>
      <trkpt lat="44.01985" lon="4.68569">
        <ele>268</ele>
        <time>2010-08-26T19:11:13.740Z</time>
      </trkpt>
      <trkpt lat="44.01984" lon="4.6854">
        <ele>268.5</ele>
        <time>2010-08-26T19:11:18.730Z</time>
      </trkpt>
      <trkpt lat="44.02" lon="4.68502">
        <ele>269.5</ele>
        <time>2010-08-26T19:11:28.730Z</time>
      </trkpt>
      <trkpt lat="44.0201" lon="4.68494">
        <ele>270</ele>
        <time>2010-08-26T19:11:32.720Z</time>
      </trkpt>
      <trkpt lat="44.02058" lon="4.68502">
        <ele>270</ele>
        <time>2010-08-26T19:11:47.400Z</time>
      </trkpt>
      <trkpt lat="44.02065" lon="4.68488">
        <ele>270.5</ele>
        <time>2010-08-26T19:11:52.390Z</time>
      </trkpt>
      <trkpt lat="44.02038" lon="4.68423">
        <ele>273.5</ele>
        <time>2010-08-26T19:12:10.380Z</time>
      </trkpt>
      <trkpt lat="44.02039" lon="4.68351">
        <ele>275</ele>
        <time>2010-08-26T19:12:25.730Z</time>
      </trkpt>
      <trkpt lat="44.02063" lon="4.6827">
        <ele>277</ele>
        <time>2010-08-26T19:12:46.720Z</time>
      </trkpt>
      <trkpt lat="44.02102" lon="4.68208">
        <ele>274.5</ele>
        <time>2010-08-26T19:13:02.780Z</time>
      </trkpt>
      <trkpt lat="44.02106" lon="4.68179">
        <ele>275</ele>
        <time>2010-08-26T19:13:07.780Z</time>
      </trkpt>
      <trkpt lat="44.02101" lon="4.68158">
        <ele>275</ele>
        <time>2010-08-26T19:13:11.780Z</time>
      </trkpt>
      <trkpt lat="44.02048" lon="4.68133">
        <ele>276</ele>
        <time>2010-08-26T19:13:28.410Z</time>
      </trkpt>
      <trkpt lat="44.02046" lon="4.68122">
        <ele>277.5</ele>
        <time>2010-08-26T19:13:32.410Z</time>
      </trkpt>
      <trkpt lat="44.02068" lon="4.68076">
        <ele>281.5</ele>
        <time>2010-08-26T19:13:47.510Z</time>
      </trkpt>
      <trkpt lat="44.02067" lon="4.68001">
        <ele>286.5</ele>
        <time>2010-08-26T19:14:07.600Z</time>
      </trkpt>
      <trkpt lat="44.02061" lon="4.67974">
        <ele>288.5</ele>
        <time>2010-08-26T19:14:15.600Z</time>
      </trkpt>
      <trkpt lat="44.02048" lon="4.67947">
        <ele>290</ele>
        <time>2010-08-26T19:14:24.220Z</time>
      </trkpt>
      <trkpt lat="44.01956" lon="4.67862">
        <ele>294</ele>
        <time>2010-08-26T19:15:09.620Z</time>
      </trkpt>
      <trkpt lat="44.01938" lon="4.67833">
        <ele>295.5</ele>
        <time>2010-08-26T19:15:21.610Z</time>
      </trkpt>
      <trkpt lat="44.01892" lon="4.67791">
        <ele>296.5</ele>
        <time>2010-08-26T19:15:41.380Z</time>
      </trkpt>
      <trkpt lat="44.01886" lon="4.67778">
        <ele>297</ele>
        <time>2010-08-26T19:15:45.180Z</time>
      </trkpt>
      <trkpt lat="44.01889" lon="4.6776">
        <ele>297.5</ele>
        <time>2010-08-26T19:15:50.180Z</time>
      </trkpt>
      <trkpt lat="44.01897" lon="4.67747">
        <ele>297.5</ele>
        <time>2010-08-26T19:15:54.180Z</time>
      </trkpt>
      <trkpt lat="44.01954" lon="4.67698">
        <ele>302</ele>
        <time>2010-08-26T19:17:25.290Z</time>
      </trkpt>
      <trkpt lat="44.01985" lon="4.67665">
        <ele>300.5</ele>
        <time>2010-08-26T19:17:33.360Z</time>
      </trkpt>
      <trkpt lat="44.02042" lon="4.67633">
        <ele>300</ele>
        <time>2010-08-26T19:17:46.350Z</time>
      </trkpt>
      <trkpt lat="44.02056" lon="4.67606">
        <ele>299</ele>
        <time>2010-08-26T19:17:51.350Z</time>
      </trkpt>
      <trkpt lat="44.02058" lon="4.67578">
        <ele>298</ele>
        <time>2010-08-26T19:17:55.340Z</time>
      </trkpt>
      <trkpt lat="44.02045" lon="4.67473">
        <ele>298</ele>
        <time>2010-08-26T19:18:11.330Z</time>
      </trkpt>
      <trkpt lat="44.02032" lon="4.67448">
        <ele>299</ele>
        <time>2010-08-26T19:18:17.330Z</time>
      </trkpt>
      <trkpt lat="44.01967" lon="4.67384">
        <ele>297.5</ele>
        <time>2010-08-26T19:18:36.320Z</time>
      </trkpt>
      <trkpt lat="44.01945" lon="4.67341">
        <ele>297.5</ele>
        <time>2010-08-26T19:18:44.320Z</time>
      </trkpt>
      <trkpt lat="44.01943" lon="4.67314">
        <ele>297.5</ele>
        <time>2010-08-26T19:18:48.310Z</time>
      </trkpt>
      <trkpt lat="44.01949" lon="4.67302">
        <ele>297</ele>
        <time>2010-08-26T19:18:50.310Z</time>
      </trkpt>
      <trkpt lat="44.01975" lon="4.67281">
        <ele>298</ele>
        <time>2010-08-26T19:18:56.310Z</time>
      </trkpt>
      <trkpt lat="44.0201" lon="4.67231">
        <ele>299</ele>
        <time>2010-08-26T19:19:09.300Z</time>
      </trkpt>
      <trkpt lat="44.02025" lon="4.67195">
        <ele>301</ele>
        <time>2010-08-26T19:19:18.460Z</time>
      </trkpt>
      <trkpt lat="44.02038" lon="4.6718">
        <ele>301.5</ele>
        <time>2010-08-26T19:19:23.460Z</time>
      </trkpt>
      <trkpt lat="44.02039" lon="4.67155">
        <ele>302</ele>
        <time>2010-08-26T19:19:31.460Z</time>
      </trkpt>
      <trkpt lat="44.02033" lon="4.67154">
        <ele>302</ele>
        <time>2010-08-26T19:19:35.460Z</time>
      </trkpt>
      <trkpt lat="44.02059" lon="4.67165">
        <ele>302.5</ele>
        <time>2010-08-26T19:19:46.450Z</time>
      </trkpt>
      <trkpt lat="44.02089" lon="4.6716">
        <ele>303</ele>
        <time>2010-08-26T19:21:21.390Z</time>
      </trkpt>
      <trkpt lat="44.02111" lon="4.67165">
        <ele>301.5</ele>
        <time>2010-08-26T19:21:29.390Z</time>
      </trkpt>
      <trkpt lat="44.02164" lon="4.67199">
        <ele>301</ele>
        <time>2010-08-26T19:21:46.380Z</time>
      </trkpt>
      <trkpt lat="44.02216" lon="4.67268">
        <ele>295.5</ele>
        <time>2010-08-26T19:21:58.370Z</time>
      </trkpt>
      <trkpt lat="44.02243" lon="4.67273">
        <ele>294.5</ele>
        <time>2010-08-26T19:22:04.370Z</time>
      </trkpt>
      <trkpt lat="44.02267" lon="4.67261">
        <ele>290.5</ele>
        <time>2010-08-26T19:22:10.360Z</time>
      </trkpt>
      <trkpt lat="44.02311" lon="4.6726">
        <ele>281.5</ele>
        <time>2010-08-26T19:22:22.360Z</time>
      </trkpt>
      <trkpt lat="44.02334" lon="4.67244">
        <ele>281</ele>
        <time>2010-08-26T19:22:28.350Z</time>
      </trkpt>
      <trkpt lat="44.02356" lon="4.6724">
        <ele>276.5</ele>
        <time>2010-08-26T19:23:39.300Z</time>
      </trkpt>
      <trkpt lat="44.02363" lon="4.67251">
        <ele>275.5</ele>
        <time>2010-08-26T19:23:53.180Z</time>
      </trkpt>
      <trkpt lat="44.02361" lon="4.6724">
        <ele>277</ele>
        <time>2010-08-26T19:24:11.170Z</time>
      </trkpt>
      <trkpt lat="44.02332" lon="4.67242">
        <ele>280.5</ele>
        <time>2010-08-26T19:24:55.140Z</time>
      </trkpt>
      <trkpt lat="44.02316" lon="4.67255">
        <ele>281</ele>
        <time>2010-08-26T19:25:04.140Z</time>
      </trkpt>
      <trkpt lat="44.02266" lon="4.67261">
        <ele>290</ele>
        <time>2010-08-26T19:25:31.750Z</time>
      </trkpt>
      <trkpt lat="44.02252" lon="4.6727">
        <ele>291.5</ele>
        <time>2010-08-26T19:25:39.740Z</time>
      </trkpt>
      <trkpt lat="44.02222" lon="4.67266">
        <ele>293.5</ele>
        <time>2010-08-26T19:25:54.740Z</time>
      </trkpt>
      <trkpt lat="44.02168" lon="4.67199">
        <ele>299</ele>
        <time>2010-08-26T19:26:29.720Z</time>
      </trkpt>
      <trkpt lat="44.02109" lon="4.67163">
        <ele>298</ele>
        <time>2010-08-26T19:26:51.700Z</time>
      </trkpt>
      <trkpt lat="44.02054" lon="4.67165">
        <ele>301.5</ele>
        <time>2010-08-26T19:27:13.690Z</time>
      </trkpt>
      <trkpt lat="44.01939" lon="4.67095">
        <ele>298.5</ele>
        <time>2010-08-26T19:27:45.670Z</time>
      </trkpt>
      <trkpt lat="44.01916" lon="4.67073">
        <ele>297.5</ele>
        <time>2010-08-26T19:27:50.670Z</time>
      </trkpt>
      <trkpt lat="44.019" lon="4.6703">
        <ele>296</ele>
        <time>2010-08-26T19:27:56.670Z</time>
      </trkpt>
      <trkpt lat="44.01896" lon="4.66974">
        <ele>294.5</ele>
        <time>2010-08-26T19:28:03.660Z</time>
      </trkpt>
      <trkpt lat="44.01901" lon="4.6696">
        <ele>294</ele>
        <time>2010-08-26T19:28:05.660Z</time>
      </trkpt>
      <trkpt lat="44.01936" lon="4.66931">
        <ele>292</ele>
        <time>2010-08-26T19:28:12.650Z</time>
      </trkpt>
      <trkpt lat="44.01984" lon="4.66908">
        <ele>288.5</ele>
        <time>2010-08-26T19:28:19.650Z</time>
      </trkpt>
      <trkpt lat="44.02024" lon="4.66874">
        <ele>288</ele>
        <time>2010-08-26T19:28:25.640Z</time>
      </trkpt>
      <trkpt lat="44.02036" lon="4.66852">
        <ele>288</ele>
        <time>2010-08-26T19:28:28.650Z</time>
      </trkpt>
      <trkpt lat="44.02065" lon="4.66716">
        <ele>292.5</ele>
        <time>2010-08-26T19:28:52.660Z</time>
      </trkpt>
      <trkpt lat="44.02055" lon="4.66574">
        <ele>300</ele>
        <time>2010-08-26T19:29:24.640Z</time>
      </trkpt>
      <trkpt lat="44.02035" lon="4.66507">
        <ele>303</ele>
        <time>2010-08-26T19:29:44.580Z</time>
      </trkpt>
      <trkpt lat="44.02109" lon="4.66443">
        <ele>301</ele>
        <time>2010-08-26T19:30:39.310Z</time>
      </trkpt>
      <trkpt lat="44.02149" lon="4.66433">
        <ele>301</ele>
        <time>2010-08-26T19:30:49.300Z</time>
      </trkpt>
      <trkpt lat="44.02207" lon="4.66374">
        <ele>298.5</ele>
        <time>2010-08-26T19:31:04.290Z</time>
      </trkpt>
      <trkpt lat="44.02215" lon="4.66329">
        <ele>293.5</ele>
        <time>2010-08-26T19:31:10.290Z</time>
      </trkpt>
      <trkpt lat="44.02264" lon="4.66256">
        <ele>286.5</ele>
        <time>2010-08-26T19:31:20.290Z</time>
      </trkpt>
      <trkpt lat="44.02319" lon="4.6619">
        <ele>283</ele>
        <time>2010-08-26T19:31:35.270Z</time>
      </trkpt>
      <trkpt lat="44.02337" lon="4.66181">
        <ele>280</ele>
        <time>2010-08-26T19:31:41.260Z</time>
      </trkpt>
      <trkpt lat="44.02361" lon="4.66139">
        <ele>274.5</ele>
        <time>2010-08-26T19:31:52.250Z</time>
      </trkpt>
      <trkpt lat="44.0237" lon="4.66144">
        <ele>279</ele>
        <time>2010-08-26T19:32:28.220Z</time>
      </trkpt>
      <trkpt lat="44.0238" lon="4.6617">
        <ele>277.5</ele>
        <time>2010-08-26T19:32:35.220Z</time>
      </trkpt>
      <trkpt lat="44.02372" lon="4.6621">
        <ele>271.5</ele>
        <time>2010-08-26T19:32:47.220Z</time>
      </trkpt>
      <trkpt lat="44.02362" lon="4.66222">
        <ele>273</ele>
        <time>2010-08-26T19:33:17.210Z</time>
      </trkpt>
      <trkpt lat="44.02376" lon="4.66257">
        <ele>259.5</ele>
        <time>2010-08-26T19:34:43.140Z</time>
      </trkpt>
      <trkpt lat="44.02378" lon="4.66286">
        <ele>258</ele>
        <time>2010-08-26T19:35:17.100Z</time>
      </trkpt>
      <trkpt lat="44.0239" lon="4.66321">
        <ele>250.5</ele>
        <time>2010-08-26T19:35:27.090Z</time>
      </trkpt>
      <trkpt lat="44.02386" lon="4.66378">
        <ele>247.5</ele>
        <time>2010-08-26T19:36:23.040Z</time>
      </trkpt>
      <trkpt lat="44.02389" lon="4.66409">
        <ele>246.5</ele>
        <time>2010-08-26T19:36:37.030Z</time>
      </trkpt>
      <trkpt lat="44.02383" lon="4.66531">
        <ele>240</ele>
        <time>2010-08-26T19:37:11.360Z</time>
      </trkpt>
      <trkpt lat="44.02398" lon="4.66577">
        <ele>239</ele>
        <time>2010-08-26T19:37:17.350Z</time>
      </trkpt>
      <trkpt lat="44.024" lon="4.66598">
        <ele>237.5</ele>
        <time>2010-08-26T19:37:20.350Z</time>
      </trkpt>
      <trkpt lat="44.02378" lon="4.66652">
        <ele>234.5</ele>
        <time>2010-08-26T19:37:29.340Z</time>
      </trkpt>
      <trkpt lat="44.02382" lon="4.66668">
        <ele>233</ele>
        <time>2010-08-26T19:37:33.320Z</time>
      </trkpt>
      <trkpt lat="44.02433" lon="4.66716">
        <ele>232.5</ele>
        <time>2010-08-26T19:37:47.310Z</time>
      </trkpt>
      <trkpt lat="44.02443" lon="4.66736">
        <ele>231.5</ele>
        <time>2010-08-26T19:37:51.310Z</time>
      </trkpt>
      <trkpt lat="44.02446" lon="4.66761">
        <ele>232</ele>
        <time>2010-08-26T19:37:55.300Z</time>
      </trkpt>
      <trkpt lat="44.02387" lon="4.66879">
        <ele>221.5</ele>
        <time>2010-08-26T19:38:13.290Z</time>
      </trkpt>
      <trkpt lat="44.0239" lon="4.66892">
        <ele>221</ele>
        <time>2010-08-26T19:38:15.290Z</time>
      </trkpt>
      <trkpt lat="44.02421" lon="4.6694">
        <ele>216.5</ele>
        <time>2010-08-26T19:38:23.290Z</time>
      </trkpt>
      <trkpt lat="44.02431" lon="4.66971">
        <ele>212.5</ele>
        <time>2010-08-26T19:38:28.280Z</time>
      </trkpt>
      <trkpt lat="44.02421" lon="4.67007">
        <ele>213.5</ele>
        <time>2010-08-26T19:38:33.280Z</time>
      </trkpt>
      <trkpt lat="44.02435" lon="4.67063">
        <ele>215</ele>
        <time>2010-08-26T19:38:41.270Z</time>
      </trkpt>
      <trkpt lat="44.02471" lon="4.67141">
        <ele>214</ele>
        <time>2010-08-26T19:38:53.260Z</time>
      </trkpt>
      <trkpt lat="44.02463" lon="4.67196">
        <ele>214</ele>
        <time>2010-08-26T19:39:00.260Z</time>
      </trkpt>
      <trkpt lat="44.02471" lon="4.67245">
        <ele>215</ele>
        <time>2010-08-26T19:39:06.250Z</time>
      </trkpt>
      <trkpt lat="44.02497" lon="4.67284">
        <ele>213</ele>
        <time>2010-08-26T19:39:12.250Z</time>
      </trkpt>
      <trkpt lat="44.02608" lon="4.67395">
        <ele>195.5</ele>
        <time>2010-08-26T19:39:35.240Z</time>
      </trkpt>
      <trkpt lat="44.02624" lon="4.67432">
        <ele>195</ele>
        <time>2010-08-26T19:39:40.230Z</time>
      </trkpt>
      <trkpt lat="44.02644" lon="4.67592">
        <ele>199.5</ele>
        <time>2010-08-26T19:40:03.220Z</time>
      </trkpt>
      <trkpt lat="44.0263" lon="4.67615">
        <ele>199</ele>
        <time>2010-08-26T19:40:08.210Z</time>
      </trkpt>
      <trkpt lat="44.02633" lon="4.67635">
        <ele>199</ele>
        <time>2010-08-26T19:40:11.210Z</time>
      </trkpt>
      <trkpt lat="44.02661" lon="4.67656">
        <ele>193.5</ele>
        <time>2010-08-26T19:40:17.210Z</time>
      </trkpt>
      <trkpt lat="44.02667" lon="4.67669">
        <ele>192.5</ele>
        <time>2010-08-26T19:40:19.200Z</time>
      </trkpt>
      <trkpt lat="44.02677" lon="4.67728">
        <ele>199.5</ele>
        <time>2010-08-26T19:40:27.210Z</time>
      </trkpt>
      <trkpt lat="44.02671" lon="4.67749">
        <ele>199</ele>
        <time>2010-08-26T19:40:30.200Z</time>
      </trkpt>
      <trkpt lat="44.02674" lon="4.67763">
        <ele>201</ele>
        <time>2010-08-26T19:40:32.200Z</time>
      </trkpt>
      <trkpt lat="44.02721" lon="4.67801">
        <ele>195</ele>
        <time>2010-08-26T19:40:42.190Z</time>
      </trkpt>
      <trkpt lat="44.02763" lon="4.67816">
        <ele>194.5</ele>
        <time>2010-08-26T19:40:50.180Z</time>
      </trkpt>
      <trkpt lat="44.02787" lon="4.67808">
        <ele>194.5</ele>
        <time>2010-08-26T19:40:55.180Z</time>
      </trkpt>
      <trkpt lat="44.02841" lon="4.67806">
        <ele>195</ele>
        <time>2010-08-26T19:41:04.170Z</time>
      </trkpt>
      <trkpt lat="44.02907" lon="4.67815">
        <ele>192</ele>
        <time>2010-08-26T19:41:19.170Z</time>
      </trkpt>
      <trkpt lat="44.02945" lon="4.67855">
        <ele>190</ele>
        <time>2010-08-26T19:42:27.120Z</time>
      </trkpt>
      <trkpt lat="44.03006" lon="4.67883">
        <ele>187</ele>
        <time>2010-08-26T19:43:50.810Z</time>
      </trkpt>
      <trkpt lat="44.03006" lon="4.67791">
        <ele>199.5</ele>
        <time>2010-08-26T19:44:27.430Z</time>
      </trkpt>
      <trkpt lat="44.03071" lon="4.67529">
        <ele>196.5</ele>
        <time>2010-08-26T19:45:25.390Z</time>
      </trkpt>
      <trkpt lat="44.03082" lon="4.67425">
        <ele>200.5</ele>
        <time>2010-08-26T19:45:44.380Z</time>
      </trkpt>
      <trkpt lat="44.03083" lon="4.67349">
        <ele>197</ele>
        <time>2010-08-26T19:46:39.420Z</time>
      </trkpt>
      <trkpt lat="44.03093" lon="4.673">
        <ele>200.5</ele>
        <time>2010-08-26T19:48:01.350Z</time>
      </trkpt>
      <trkpt lat="44.0306" lon="4.67037">
        <ele>208.5</ele>
        <time>2010-08-26T19:48:50.220Z</time>
      </trkpt>
      <trkpt lat="44.03086" lon="4.66944">
        <ele>202.5</ele>
        <time>2010-08-26T19:49:06.220Z</time>
      </trkpt>
      <trkpt lat="44.03099" lon="4.66922">
        <ele>200.5</ele>
        <time>2010-08-26T19:49:12.220Z</time>
      </trkpt>
      <trkpt lat="44.03236" lon="4.66778">
        <ele>216.5</ele>
        <time>2010-08-26T19:50:31.160Z</time>
      </trkpt>
      <trkpt lat="44.03235" lon="4.66766">
        <ele>206</ele>
        <time>2010-08-26T19:55:32.830Z</time>
      </trkpt>
      <trkpt lat="44.0329" lon="4.66691">
        <ele>214.5</ele>
        <time>2010-08-26T19:56:01.800Z</time>
      </trkpt>
      <trkpt lat="44.03349" lon="4.66554">
        <ele>216.5</ele>
        <time>2010-08-26T19:56:29.780Z</time>
      </trkpt>
      <trkpt lat="44.03337" lon="4.66474">
        <ele>219.5</ele>
        <time>2010-08-26T19:56:41.770Z</time>
      </trkpt>
      <trkpt lat="44.03304" lon="4.66398">
        <ele>219</ele>
        <time>2010-08-26T19:56:54.770Z</time>
      </trkpt>
      <trkpt lat="44.03287" lon="4.66331">
        <ele>217.5</ele>
        <time>2010-08-26T19:57:05.760Z</time>
      </trkpt>
      <trkpt lat="44.03278" lon="4.66207">
        <ele>216</ele>
        <time>2010-08-26T19:57:25.740Z</time>
      </trkpt>
      <trkpt lat="44.03259" lon="4.66182">
        <ele>216</ele>
        <time>2010-08-26T19:57:31.740Z</time>
      </trkpt>
      <trkpt lat="44.03215" lon="4.66159">
        <ele>217</ele>
        <time>2010-08-26T19:57:41.730Z</time>
      </trkpt>
      <trkpt lat="44.03171" lon="4.66118">
        <ele>222</ele>
        <time>2010-08-26T19:57:52.720Z</time>
      </trkpt>
      <trkpt lat="44.03131" lon="4.66092">
        <ele>226.5</ele>
        <time>2010-08-26T19:58:02.710Z</time>
      </trkpt>
      <trkpt lat="44.03121" lon="4.66072">
        <ele>231.5</ele>
        <time>2010-08-26T19:58:08.710Z</time>
      </trkpt>
      <trkpt lat="44.03117" lon="4.6604">
        <ele>227.5</ele>
        <time>2010-08-26T19:58:18.700Z</time>
      </trkpt>
      <trkpt lat="44.03123" lon="4.65955">
        <ele>222.5</ele>
        <time>2010-08-26T19:59:15.640Z</time>
      </trkpt>
      <trkpt lat="44.03109" lon="4.6588">
        <ele>221.5</ele>
        <time>2010-08-26T19:59:28.640Z</time>
      </trkpt>
      <trkpt lat="44.0309" lon="4.65857">
        <ele>227.5</ele>
        <time>2010-08-26T19:59:35.630Z</time>
      </trkpt>
      <trkpt lat="44.03072" lon="4.65856">
        <ele>227.5</ele>
        <time>2010-08-26T19:59:42.620Z</time>
      </trkpt>
      <trkpt lat="44.03037" lon="4.65884">
        <ele>223.5</ele>
        <time>2010-08-26T20:10:14.160Z</time>
      </trkpt>
      <trkpt lat="44.03039" lon="4.65879">
        <ele>227.5</ele>
        <time>2010-08-26T20:10:56.110Z</time>
      </trkpt>
      <trkpt lat="44.03041" lon="4.65884">
        <ele>225.5</ele>
        <time>2010-08-26T20:11:01.110Z</time>
      </trkpt>
      <trkpt lat="44.03003" lon="4.6592">
        <ele>230.5</ele>
        <time>2010-08-26T20:11:33.090Z</time>
      </trkpt>
      <trkpt lat="44.02999" lon="4.6593">
        <ele>232</ele>
        <time>2010-08-26T20:11:37.080Z</time>
      </trkpt>
      <trkpt lat="44.03007" lon="4.65983">
        <ele>233.5</ele>
        <time>2010-08-26T20:11:48.070Z</time>
      </trkpt>
      <trkpt lat="44.03004" lon="4.66015">
        <ele>232.5</ele>
        <time>2010-08-26T20:11:53.070Z</time>
      </trkpt>
      <trkpt lat="44.02991" lon="4.66068">
        <ele>234.5</ele>
        <time>2010-08-26T20:12:02.060Z</time>
      </trkpt>
      <trkpt lat="44.02968" lon="4.66084">
        <ele>235</ele>
        <time>2010-08-26T20:12:08.050Z</time>
      </trkpt>
      <trkpt lat="44.02961" lon="4.66026">
        <ele>233</ele>
        <time>2010-08-26T20:12:21.040Z</time>
      </trkpt>
      <trkpt lat="44.02949" lon="4.65983">
        <ele>230</ele>
        <time>2010-08-26T20:12:32.030Z</time>
      </trkpt>
      <trkpt lat="44.02906" lon="4.65922">
        <ele>237.5</ele>
        <time>2010-08-26T20:12:50.010Z</time>
      </trkpt>
      <trkpt lat="44.02789" lon="4.65841">
        <ele>240</ele>
        <time>2010-08-26T20:13:18.970Z</time>
      </trkpt>
      <trkpt lat="44.02779" lon="4.65829">
        <ele>243</ele>
        <time>2010-08-26T20:13:21.970Z</time>
      </trkpt>
      <trkpt lat="44.02743" lon="4.65809">
        <ele>242</ele>
        <time>2010-08-26T20:13:30.960Z</time>
      </trkpt>
      <trkpt lat="44.02676" lon="4.65796">
        <ele>245.5</ele>
        <time>2010-08-26T20:13:46.950Z</time>
      </trkpt>
      <trkpt lat="44.02634" lon="4.65762">
        <ele>247.5</ele>
        <time>2010-08-26T20:14:00.940Z</time>
      </trkpt>
      <trkpt lat="44.026" lon="4.65752">
        <ele>249.5</ele>
        <time>2010-08-26T20:14:08.940Z</time>
      </trkpt>
      <trkpt lat="44.02551" lon="4.65689">
        <ele>252.5</ele>
        <time>2010-08-26T20:14:24.930Z</time>
      </trkpt>
      <trkpt lat="44.02547" lon="4.65661">
        <ele>252.5</ele>
        <time>2010-08-26T20:14:28.070Z</time>
      </trkpt>
      <trkpt lat="44.02527" lon="4.65634">
        <ele>250.5</ele>
        <time>2010-08-26T20:14:34.060Z</time>
      </trkpt>
      <trkpt lat="44.02523" lon="4.65559">
        <ele>251</ele>
        <time>2010-08-26T20:14:47.050Z</time>
      </trkpt>
      <trkpt lat="44.0248" lon="4.65484">
        <ele>248</ele>
        <time>2010-08-26T20:15:03.040Z</time>
      </trkpt>
      <trkpt lat="44.02456" lon="4.65458">
        <ele>250</ele>
        <time>2010-08-26T20:15:11.040Z</time>
      </trkpt>
      <trkpt lat="44.02449" lon="4.65397">
        <ele>247</ele>
        <time>2010-08-26T20:15:51.010Z</time>
      </trkpt>
      <trkpt lat="44.02444" lon="4.65406">
        <ele>244</ele>
        <time>2010-08-26T20:15:59Z</time>
      </trkpt>
      <trkpt lat="44.02448" lon="4.65393">
        <ele>240</ele>
        <time>2010-08-26T20:16:04Z</time>
      </trkpt>
      <trkpt lat="44.02439" lon="4.65376">
        <ele>245</ele>
        <time>2010-08-26T20:16:13.980Z</time>
      </trkpt>
      <trkpt lat="44.02403" lon="4.65378">
        <ele>249</ele>
        <time>2010-08-26T20:16:27.980Z</time>
      </trkpt>
      <trkpt lat="44.02365" lon="4.65362">
        <ele>245.5</ele>
        <time>2010-08-26T20:16:36.970Z</time>
      </trkpt>
      <trkpt lat="44.02326" lon="4.65331">
        <ele>242.5</ele>
        <time>2010-08-26T20:16:46.970Z</time>
      </trkpt>
      <trkpt lat="44.02264" lon="4.65305">
        <ele>251.5</ele>
        <time>2010-08-26T20:17:06.950Z</time>
      </trkpt>
      <trkpt lat="44.02212" lon="4.65256">
        <ele>254</ele>
        <time>2010-08-26T20:17:23.930Z</time>
      </trkpt>
      <trkpt lat="44.0212" lon="4.65204">
        <ele>250.5</ele>
        <time>2010-08-26T20:17:43.910Z</time>
      </trkpt>
      <trkpt lat="44.02048" lon="4.65207">
        <ele>252</ele>
        <time>2010-08-26T20:18:00.910Z</time>
      </trkpt>
      <trkpt lat="44.01997" lon="4.65178">
        <ele>255</ele>
        <time>2010-08-26T20:18:19.890Z</time>
      </trkpt>
      <trkpt lat="44.01977" lon="4.65126">
        <ele>258</ele>
        <time>2010-08-26T20:18:37.880Z</time>
      </trkpt>
      <trkpt lat="44.01972" lon="4.65077">
        <ele>259</ele>
        <time>2010-08-26T20:18:49.880Z</time>
      </trkpt>
      <trkpt lat="44.01969" lon="4.65079">
        <ele>261.5</ele>
        <time>2010-08-26T20:18:58.870Z</time>
      </trkpt>
      <trkpt lat="44.01972" lon="4.65077">
        <ele>258</ele>
        <time>2010-08-26T20:19:06.860Z</time>
      </trkpt>
      <trkpt lat="44.01966" lon="4.6507">
        <ele>254.5</ele>
        <time>2010-08-26T20:19:43.670Z</time>
      </trkpt>
      <trkpt lat="44.01892" lon="4.65076">
        <ele>260.5</ele>
        <time>2010-08-26T20:20:01.630Z</time>
      </trkpt>
      <trkpt lat="44.0162" lon="4.65048">
        <ele>275.5</ele>
        <time>2010-08-26T20:21:04.570Z</time>
      </trkpt>
      <trkpt lat="44.01593" lon="4.65051">
        <ele>275.5</ele>
        <time>2010-08-26T20:21:11.570Z</time>
      </trkpt>
      <trkpt lat="44.01555" lon="4.65079">
        <ele>270</ele>
        <time>2010-08-26T20:21:20.550Z</time>
      </trkpt>
      <trkpt lat="44.01547" lon="4.65125">
        <ele>269</ele>
        <time>2010-08-26T20:21:29.550Z</time>
      </trkpt>
      <trkpt lat="44.01543" lon="4.65111">
        <ele>269</ele>
        <time>2010-08-26T20:21:32.550Z</time>
      </trkpt>
      <trkpt lat="44.01545" lon="4.65125">
        <ele>270</ele>
        <time>2010-08-26T20:21:43.540Z</time>
      </trkpt>
      <trkpt lat="44.01537" lon="4.65112">
        <ele>269.5</ele>
        <time>2010-08-26T20:22:03.530Z</time>
      </trkpt>
      <trkpt lat="44.01543" lon="4.65123">
        <ele>271.5</ele>
        <time>2010-08-26T20:22:25.500Z</time>
      </trkpt>
      <trkpt lat="44.01497" lon="4.65156">
        <ele>269</ele>
        <time>2010-08-26T20:22:55.470Z</time>
      </trkpt>
      <trkpt lat="44.0144" lon="4.65162">
        <ele>266.5</ele>
        <time>2010-08-26T20:23:10.460Z</time>
      </trkpt>
      <trkpt lat="44.01433" lon="4.65168">
        <ele>263.5</ele>
        <time>2010-08-26T20:23:17.460Z</time>
      </trkpt>
      <trkpt lat="44.01438" lon="4.6517">
        <ele>266.5</ele>
        <time>2010-08-26T20:23:33.440Z</time>
      </trkpt>
      <trkpt lat="44.01426" lon="4.65176">
        <ele>264.5</ele>
        <time>2010-08-26T20:25:38.330Z</time>
      </trkpt>
      <trkpt lat="44.01303" lon="4.65385">
        <ele>263</ele>
        <time>2010-08-26T20:26:17.310Z</time>
      </trkpt>
      <trkpt lat="44.01304" lon="4.65405">
        <ele>264.5</ele>
        <time>2010-08-26T20:26:19.290Z</time>
      </trkpt>
      <trkpt lat="44.01329" lon="4.65431">
        <ele>262</ele>
        <time>2010-08-26T20:26:23.290Z</time>
      </trkpt>
      <trkpt lat="44.01377" lon="4.65453">
        <ele>259.5</ele>
        <time>2010-08-26T20:26:29.290Z</time>
      </trkpt>
      <trkpt lat="44.01425" lon="4.6556">
        <ele>257.5</ele>
        <time>2010-08-26T20:26:39.280Z</time>
      </trkpt>
      <trkpt lat="44.0143" lon="4.65607">
        <ele>256</ele>
        <time>2010-08-26T20:26:43.280Z</time>
      </trkpt>
      <trkpt lat="44.01406" lon="4.65647">
        <ele>253</ele>
        <time>2010-08-26T20:26:48.270Z</time>
      </trkpt>
      <trkpt lat="44.0137" lon="4.65668">
        <ele>253</ele>
        <time>2010-08-26T20:26:54.270Z</time>
      </trkpt>
      <trkpt lat="44.01353" lon="4.65702">
        <ele>254</ele>
        <time>2010-08-26T20:26:59.260Z</time>
      </trkpt>
      <trkpt lat="44.01357" lon="4.65719">
        <ele>255.5</ele>
        <time>2010-08-26T20:27:05.150Z</time>
      </trkpt>
      <trkpt lat="44.0142" lon="4.65753">
        <ele>254.5</ele>
        <time>2010-08-26T20:27:14.100Z</time>
      </trkpt>
      <trkpt lat="44.01429" lon="4.6578">
        <ele>254</ele>
        <time>2010-08-26T20:27:17.100Z</time>
      </trkpt>
      <trkpt lat="44.01428" lon="4.658">
        <ele>254.5</ele>
        <time>2010-08-26T20:27:19.100Z</time>
      </trkpt>
      <trkpt lat="44.01387" lon="4.65927">
        <ele>248</ele>
        <time>2010-08-26T20:27:34.090Z</time>
      </trkpt>
      <trkpt lat="44.01381" lon="4.65956">
        <ele>247</ele>
        <time>2010-08-26T20:27:37.090Z</time>
      </trkpt>
      <trkpt lat="44.01375" lon="4.66239">
        <ele>234.5</ele>
        <time>2010-08-26T20:28:00.090Z</time>
      </trkpt>
      <trkpt lat="44.01356" lon="4.66284">
        <ele>232.5</ele>
        <time>2010-08-26T20:28:04.080Z</time>
      </trkpt>
      <trkpt lat="44.01215" lon="4.6646">
        <ele>225.5</ele>
        <time>2010-08-26T20:28:24.080Z</time>
      </trkpt>
      <trkpt lat="44.01193" lon="4.66516">
        <ele>223.5</ele>
        <time>2010-08-26T20:28:42.060Z</time>
      </trkpt>
      <trkpt lat="44.01168" lon="4.6663">
        <ele>216.5</ele>
        <time>2010-08-26T20:33:14.550Z</time>
      </trkpt>
      <trkpt lat="44.01134" lon="4.6674">
        <ele>212</ele>
        <time>2010-08-26T20:33:26.540Z</time>
      </trkpt>
      <trkpt lat="44.01129" lon="4.66779">
        <ele>210</ele>
        <time>2010-08-26T20:33:30.530Z</time>
      </trkpt>
      <trkpt lat="44.01171" lon="4.67155">
        <ele>207</ele>
        <time>2010-08-26T20:33:59.510Z</time>
      </trkpt>
      <trkpt lat="44.01171" lon="4.6722">
        <ele>206.5</ele>
        <time>2010-08-26T20:34:04.520Z</time>
      </trkpt>
      <trkpt lat="44.01158" lon="4.67391">
        <ele>204</ele>
        <time>2010-08-26T20:34:18.500Z</time>
      </trkpt>
      <trkpt lat="44.01111" lon="4.68209">
        <ele>183.5</ele>
        <time>2010-08-26T20:35:19.460Z</time>
      </trkpt>
      <trkpt lat="44.01153" lon="4.68401">
        <ele>180.5</ele>
        <time>2010-08-26T20:35:34.450Z</time>
      </trkpt>
      <trkpt lat="44.01158" lon="4.68454">
        <ele>180</ele>
        <time>2010-08-26T20:35:38.450Z</time>
      </trkpt>
      <trkpt lat="44.01127" lon="4.68852">
        <ele>169.5</ele>
        <time>2010-08-26T20:36:09.430Z</time>
      </trkpt>
      <trkpt lat="44.01157" lon="4.69277">
        <ele>170</ele>
        <time>2010-08-26T20:36:44.410Z</time>
      </trkpt>
      <trkpt lat="44.01229" lon="4.69724">
        <ele>162.5</ele>
        <time>2010-08-26T20:37:23.380Z</time>
      </trkpt>
      <trkpt lat="44.01233" lon="4.69778">
        <ele>160.5</ele>
        <time>2010-08-26T20:37:28.380Z</time>
      </trkpt>
      <trkpt lat="44.01226" lon="4.69842">
        <ele>159</ele>
        <time>2010-08-26T20:37:34.380Z</time>
      </trkpt>
      <trkpt lat="44.01172" lon="4.7003">
        <ele>162</ele>
        <time>2010-08-26T20:37:57.350Z</time>
      </trkpt>
      <trkpt lat="44.01147" lon="4.70059">
        <ele>162</ele>
        <time>2010-08-26T20:38:03.360Z</time>
      </trkpt>
      <trkpt lat="44.01117" lon="4.70145">
        <ele>159</ele>
        <time>2010-08-26T20:38:14.350Z</time>
      </trkpt>
      <trkpt lat="44.01122" lon="4.70251">
        <ele>160.5</ele>
        <time>2010-08-26T20:38:23.340Z</time>
      </trkpt>
      <trkpt lat="44.01069" lon="4.70692">
        <ele>141.5</ele>
        <time>2010-08-26T20:38:59.320Z</time>
      </trkpt>
      <trkpt lat="44.0107" lon="4.70718">
        <ele>141.5</ele>
        <time>2010-08-26T20:39:03.310Z</time>
      </trkpt>
      <trkpt lat="44.01053" lon="4.70854">
        <ele>139.5</ele>
        <time>2010-08-26T20:39:20.300Z</time>
      </trkpt>
      <trkpt lat="44.01043" lon="4.70869">
        <ele>139</ele>
        <time>2010-08-26T20:39:22.300Z</time>
      </trkpt>
      <trkpt lat="44.00886" lon="4.70909">
        <ele>135.5</ele>
        <time>2010-08-26T20:39:42.290Z</time>
      </trkpt>
      <trkpt lat="44.00693" lon="4.71043">
        <ele>133.5</ele>
        <time>2010-08-26T20:40:11.270Z</time>
      </trkpt>
      <trkpt lat="44.00586" lon="4.71107">
        <ele>131</ele>
        <time>2010-08-26T20:40:24.260Z</time>
      </trkpt>
      <trkpt lat="44.00509" lon="4.7114">
        <ele>129</ele>
        <time>2010-08-26T20:40:33.250Z</time>
      </trkpt>
      <trkpt lat="44.00191" lon="4.71253">
        <ele>123.5</ele>
        <time>2010-08-26T20:41:13.220Z</time>
      </trkpt>
      <trkpt lat="44.00168" lon="4.71269">
        <ele>123</ele>
        <time>2010-08-26T20:41:17.220Z</time>
      </trkpt>
      <trkpt lat="44.00145" lon="4.71298">
        <ele>122.5</ele>
        <time>2010-08-26T20:41:22.220Z</time>
      </trkpt>
      <trkpt lat="44.00132" lon="4.71327">
        <ele>122</ele>
        <time>2010-08-26T20:41:26.220Z</time>
      </trkpt>
      <trkpt lat="44.00034" lon="4.71387">
        <ele>120.5</ele>
        <time>2010-08-26T20:41:40.210Z</time>
      </trkpt>
      <trkpt lat="43.99895" lon="4.71442">
        <ele>120</ele>
        <time>2010-08-26T20:41:58.200Z</time>
      </trkpt>
      <trkpt lat="43.99752" lon="4.71516">
        <ele>120.5</ele>
        <time>2010-08-26T20:42:17.180Z</time>
      </trkpt>
      <trkpt lat="43.99482" lon="4.71595">
        <ele>137</ele>
        <time>2010-08-26T20:43:04.150Z</time>
      </trkpt>
      <trkpt lat="43.9934" lon="4.71616">
        <ele>140</ele>
        <time>2010-08-26T20:43:29.130Z</time>
      </trkpt>
      <trkpt lat="43.9924" lon="4.71618">
        <ele>132</ele>
        <time>2010-08-26T20:43:42.130Z</time>
      </trkpt>
      <trkpt lat="43.99207" lon="4.71607">
        <ele>130.5</ele>
        <time>2010-08-26T20:43:46.120Z</time>
      </trkpt>
      <trkpt lat="43.99167" lon="4.71579">
        <ele>128.5</ele>
        <time>2010-08-26T20:43:51.120Z</time>
      </trkpt>
      <trkpt lat="43.99139" lon="4.71546">
        <ele>127.5</ele>
        <time>2010-08-26T20:43:55.110Z</time>
      </trkpt>
      <trkpt lat="43.99076" lon="4.71438">
        <ele>125.5</ele>
        <time>2010-08-26T20:44:07.100Z</time>
      </trkpt>
      <trkpt lat="43.9902" lon="4.71359">
        <ele>124</ele>
        <time>2010-08-26T20:44:18.100Z</time>
      </trkpt>
      <trkpt lat="43.9891" lon="4.71254">
        <ele>122</ele>
        <time>2010-08-26T20:44:35.670Z</time>
      </trkpt>
      <trkpt lat="43.9885" lon="4.71172">
        <ele>122.5</ele>
        <time>2010-08-26T20:44:47.670Z</time>
      </trkpt>
      <trkpt lat="43.98774" lon="4.71049">
        <ele>123</ele>
        <time>2010-08-26T20:45:04.660Z</time>
      </trkpt>
      <trkpt lat="43.98711" lon="4.70987">
        <ele>122</ele>
        <time>2010-08-26T20:45:16.650Z</time>
      </trkpt>
      <trkpt lat="43.98645" lon="4.7096">
        <ele>122.5</ele>
        <time>2010-08-26T20:45:27.640Z</time>
      </trkpt>
      <trkpt lat="43.98612" lon="4.70935">
        <ele>124.5</ele>
        <time>2010-08-26T20:45:34.630Z</time>
      </trkpt>
      <trkpt lat="43.98577" lon="4.70889">
        <ele>127</ele>
        <time>2010-08-26T20:45:44.630Z</time>
      </trkpt>
      <trkpt lat="43.9841" lon="4.70535">
        <ele>127.5</ele>
        <time>2010-08-26T20:46:42.610Z</time>
      </trkpt>
      <trkpt lat="43.98278" lon="4.70125">
        <ele>125.5</ele>
        <time>2010-08-26T20:47:34.560Z</time>
      </trkpt>
      <trkpt lat="43.98255" lon="4.70139">
        <ele>124</ele>
        <time>2010-08-26T20:51:48.390Z</time>
      </trkpt>
    </trkseg>
  </trk>
</gpx>